North Chili, New York
Current Conditions -  °F | °C
As of 2:54 AM on Tuesday 21 Oct 2014 (Local Time) from KROC Reporting Station
Light Rain Light Rain  
Wind Chill: 51°   Ceiling: 2600
Heat Index: 51°   Visibility: 10mi
Dew Point: 48°   Wind: 6mph
Humidity: 89%   Direction: 190°S
Pressure: 29.79"   Gusts: NA
Location:  43.12°N, 77.8°W
Report Text: KROC 210654Z 19005KT 10SM -RA OVC026 11/09 A2979 RMK AO2 RAB20 SLP094 PCPN VRY LGT P0000 T01060089
Loading
Personal Weather Stations






























Interactive Weather Map
Tropical Storm Tracking
New forecast layout! Learn more

10-Day Weather Forecast

Advertisements
Track Severe Weather on mobile